sensor_id;sensor_type;location;lat;lon;timestamp;P1;durP1;ratioP1;P2;durP2;ratioP2
6955;SDS011;50345;51.136;16.886;2023-08-08T00:00:00;2.70;;;2.05;;
6955;SDS011;50345;51.136;16.886;2023-08-08T00:02:26;3.40;;;2.00;;
6955;SDS011;50345;51.136;16.886;2023-08-08T00:04:52;2.67;;;1.65;;
6955;SDS011;50345;51.136;16.886;2023-08-08T00:07:18;2.92;;;2.05;;
6955;SDS011;50345;51.136;16.886;2023-08-08T00:09:44;5.20;;;2.33;;
6955;SDS011;50345;51.136;16.886;2023-08-08T00:12:10;3.78;;;2.58;;
6955;SDS011;50345;51.136;16.886;2023-08-08T00:14:36;12.52;;;2.80;;
6955;SDS011;50345;51.136;16.886;2023-08-08T00:17:03;3.78;;;2.13;;
6955;SDS011;50345;51.136;16.886;2023-08-08T00:19:29;3.15;;;1.70;;
6955;SDS011;50345;51.136;16.886;2023-08-08T00:21:55;2.57;;;2.10;;
6955;SDS011;50345;51.136;16.886;2023-08-08T00:24:21;2.88;;;2.25;;
6955;SDS011;50345;51.136;16.886;2023-08-08T00:26:47;3.13;;;1.70;;
6955;SDS011;50345;51.136;16.886;2023-08-08T00:29:13;2.67;;;1.83;;
6955;SDS011;50345;51.136;16.886;2023-08-08T00:31:39;2.95;;;2.00;;
6955;SDS011;50345;51.136;16.886;2023-08-08T00:34:05;3.53;;;2.10;;
6955;SDS011;50345;51.136;16.886;2023-08-08T00:36:31;3.55;;;1.83;;
6955;SDS011;50345;51.136;16.886;2023-08-08T00:38:57;2.00;;;1.63;;
6955;SDS011;50345;51.136;16.886;2023-08-08T00:41:23;2.70;;;2.10;;
6955;SDS011;50345;51.136;16.886;2023-08-08T00:43:49;3.55;;;1.50;;
6955;SDS011;50345;51.136;16.886;2023-08-08T00:46:15;2.85;;;1.75;;
6955;SDS011;50345;51.136;16.886;2023-08-08T00:48:43;2.85;;;1.98;;
6955;SDS011;50345;51.136;16.886;2023-08-08T00:51:09;2.85;;;2.33;;
6955;SDS011;50345;51.136;16.886;2023-08-08T00:53:35;2.17;;;1.85;;
6955;SDS011;50345;51.136;16.886;2023-08-08T00:56:01;2.20;;;1.55;;
6955;SDS011;50345;51.136;16.886;2023-08-08T00:58:27;6.93;;;2.55;;
6955;SDS011;50345;51.136;16.886;2023-08-08T01:00:54;3.55;;;2.30;;
6955;SDS011;50345;51.136;16.886;2023-08-08T01:03:22;3.15;;;2.58;;
6955;SDS011;50345;51.136;16.886;2023-08-08T01:05:51;2.03;;;1.80;;
6955;SDS011;50345;51.136;16.886;2023-08-08T01:08:21;5.05;;;3.10;;
6955;SDS011;50345;51.136;16.886;2023-08-08T01:10:48;4.13;;;3.40;;
6955;SDS011;50345;51.136;16.886;2023-08-08T01:13:16;10.20;;;5.57;;
6955;SDS011;50345;51.136;16.886;2023-08-08T01:15:43;8.50;;;4.65;;
6955;SDS011;50345;51.136;16.886;2023-08-08T01:18:10;4.28;;;3.83;;
6955;SDS011;50345;51.136;16.886;2023-08-08T01:20:37;5.15;;;3.72;;
6955;SDS011;50345;51.136;16.886;2023-08-08T01:23:19;10.13;;;3.88;;
6955;SDS011;50345;51.136;16.886;2023-08-08T01:25:46;10.25;;;4.95;;
6955;SDS011;50345;51.136;16.886;2023-08-08T01:28:12;6.75;;;5.13;;
6955;SDS011;50345;51.136;16.886;2023-08-08T01:30:38;10.57;;;7.15;;
6955;SDS011;50345;51.136;16.886;2023-08-08T01:33:04;9.55;;;6.35;;
6955;SDS011;50345;51.136;16.886;2023-08-08T01:35:32;7.70;;;6.78;;
6955;SDS011;50345;51.136;16.886;2023-08-08T01:38:14;7.20;;;6.03;;
6955;SDS011;50345;51.136;16.886;2023-08-08T01:40:43;7.93;;;6.60;;
6955;SDS011;50345;51.136;16.886;2023-08-08T01:43:10;9.75;;;5.63;;
6955;SDS011;50345;51.136;16.886;2023-08-08T01:45:37;7.70;;;5.40;;
6955;SDS011;50345;51.136;16.886;2023-08-08T01:48:06;6.72;;;5.38;;
6955;SDS011;50345;51.136;16.886;2023-08-08T01:50:32;7.15;;;4.25;;
6955;SDS011;50345;51.136;16.886;2023-08-08T01:52:58;7.70;;;4.23;;
6955;SDS011;50345;51.136;16.886;2023-08-08T01:55:24;4.85;;;3.28;;
6955;SDS011;50345;51.136;16.886;2023-08-08T01:57:50;6.25;;;3.30;;
6955;SDS011;50345;51.136;16.886;2023-08-08T02:00:16;7.05;;;3.97;;
6955;SDS011;50345;51.136;16.886;2023-08-08T02:02:42;5.55;;;2.97;;
6955;SDS011;50345;51.136;16.886;2023-08-08T02:05:08;3.97;;;3.00;;
6955;SDS011;50345;51.136;16.886;2023-08-08T02:07:34;4.30;;;2.53;;
6955;SDS011;50345;51.136;16.886;2023-08-08T02:10:00;6.75;;;3.78;;
6955;SDS011;50345;51.136;16.886;2023-08-08T02:12:26;7.68;;;3.35;;
6955;SDS011;50345;51.136;16.886;2023-08-08T02:14:55;4.05;;;2.92;;
6955;SDS011;50345;51.136;16.886;2023-08-08T02:17:21;5.28;;;3.42;;
6955;SDS011;50345;51.136;16.886;2023-08-08T02:19:47;6.65;;;3.42;;
6955;SDS011;50345;51.136;16.886;2023-08-08T02:22:13;5.10;;;3.35;;
6955;SDS011;50345;51.136;16.886;2023-08-08T02:24:39;14.68;;;4.00;;
6955;SDS011;50345;51.136;16.886;2023-08-08T02:27:05;6.38;;;3.38;;
6955;SDS011;50345;51.136;16.886;2023-08-08T02:29:31;6.05;;;4.40;;
6955;SDS011;50345;51.136;16.886;2023-08-08T02:31:57;4.45;;;3.10;;
6955;SDS011;50345;51.136;16.886;2023-08-08T02:34:23;4.20;;;2.43;;
6955;SDS011;50345;51.136;16.886;2023-08-08T02:36:49;5.57;;;3.33;;
6955;SDS011;50345;51.136;16.886;2023-08-08T02:39:15;4.93;;;3.50;;
6955;SDS011;50345;51.136;16.886;2023-08-08T02:41:41;5.28;;;3.30;;
6955;SDS011;50345;51.136;16.886;2023-08-08T02:44:07;7.10;;;3.55;;
6955;SDS011;50345;51.136;16.886;2023-08-08T02:46:34;6.75;;;3.78;;
6955;SDS011;50345;51.136;16.886;2023-08-08T02:49:01;7.60;;;3.28;;
6955;SDS011;50345;51.136;16.886;2023-08-08T02:51:27;6.45;;;3.10;;
6955;SDS011;50345;51.136;16.886;2023-08-08T02:53:53;5.95;;;3.38;;
6955;SDS011;50345;51.136;16.886;2023-08-08T02:56:19;5.50;;;3.75;;
6955;SDS011;50345;51.136;16.886;2023-08-08T02:58:45;8.83;;;4.50;;
6955;SDS011;50345;51.136;16.886;2023-08-08T03:01:11;6.78;;;3.50;;
6955;SDS011;50345;51.136;16.886;2023-08-08T03:03:40;8.43;;;4.15;;
6955;SDS011;50345;51.136;16.886;2023-08-08T03:06:07;5.35;;;3.58;;
6955;SDS011;50345;51.136;16.886;2023-08-08T03:08:33;4.78;;;2.90;;
6955;SDS011;50345;51.136;16.886;2023-08-08T03:10:59;7.22;;;3.60;;
6955;SDS011;50345;51.136;16.886;2023-08-08T03:13:25;6.95;;;3.05;;
6955;SDS011;50345;51.136;16.886;2023-08-08T03:15:51;4.57;;;3.42;;
6955;SDS011;50345;51.136;16.886;2023-08-08T03:18:17;4.30;;;2.80;;
6955;SDS011;50345;51.136;16.886;2023-08-08T03:20:43;5.00;;;3.50;;
6955;SDS011;50345;51.136;16.886;2023-08-08T03:23:09;3.73;;;2.30;;
6955;SDS011;50345;51.136;16.886;2023-08-08T03:25:35;6.43;;;3.23;;
6955;SDS011;50345;51.136;16.886;2023-08-08T03:28:01;4.20;;;2.85;;
6955;SDS011;50345;51.136;16.886;2023-08-08T03:30:27;6.25;;;3.50;;
6955;SDS011;50345;51.136;16.886;2023-08-08T03:32:53;8.23;;;3.30;;
6955;SDS011;50345;51.136;16.886;2023-08-08T03:35:19;6.88;;;3.60;;
6955;SDS011;50345;51.136;16.886;2023-08-08T03:37:45;6.10;;;2.70;;
6955;SDS011;50345;51.136;16.886;2023-08-08T03:40:11;5.95;;;2.80;;
6955;SDS011;50345;51.136;16.886;2023-08-08T03:42:40;5.30;;;2.70;;
6955;SDS011;50345;51.136;16.886;2023-08-08T03:45:07;2.78;;;2.55;;
6955;SDS011;50345;51.136;16.886;2023-08-08T03:47:33;5.35;;;3.13;;
6955;SDS011;50345;51.136;16.886;2023-08-08T03:49:59;2.50;;;2.00;;
6955;SDS011;50345;51.136;16.886;2023-08-08T03:52:25;3.35;;;2.63;;
6955;SDS011;50345;51.136;16.886;2023-08-08T03:54:51;5.73;;;2.60;;
6955;SDS011;50345;51.136;16.886;2023-08-08T03:57:18;6.63;;;2.40;;
6955;SDS011;50345;51.136;16.886;2023-08-08T03:59:44;3.97;;;1.92;;
6955;SDS011;50345;51.136;16.886;2023-08-08T04:02:10;5.40;;;2.05;;
6955;SDS011;50345;51.136;16.886;2023-08-08T04:04:36;2.50;;;1.80;;
6955;SDS011;50345;51.136;16.886;2023-08-08T04:07:03;4.50;;;2.17;;
6955;SDS011;50345;51.136;16.886;2023-08-08T04:09:29;2.47;;;1.75;;
6955;SDS011;50345;51.136;16.886;2023-08-08T04:11:56;2.45;;;1.80;;
6955;SDS011;50345;51.136;16.886;2023-08-08T04:14:22;3.00;;;2.10;;
6955;SDS011;50345;51.136;16.886;2023-08-08T04:16:48;1.95;;;1.67;;
6955;SDS011;50345;51.136;16.886;2023-08-08T04:19:14;2.70;;;1.93;;
6955;SDS011;50345;51.136;16.886;2023-08-08T04:21:40;6.55;;;2.63;;
6955;SDS011;50345;51.136;16.886;2023-08-08T04:24:06;10.07;;;3.40;;
6955;SDS011;50345;51.136;16.886;2023-08-08T04:26:33;3.70;;;2.20;;
6955;SDS011;50345;51.136;16.886;2023-08-08T04:28:59;4.15;;;2.75;;
6955;SDS011;50345;51.136;16.886;2023-08-08T04:31:25;3.10;;;2.40;;
6955;SDS011;50345;51.136;16.886;2023-08-08T04:33:51;3.10;;;2.20;;
6955;SDS011;50345;51.136;16.886;2023-08-08T04:36:23;7.47;;;2.33;;
6955;SDS011;50345;51.136;16.886;2023-08-08T04:38:49;4.90;;;2.30;;
6955;SDS011;50345;51.136;16.886;2023-08-08T04:41:15;5.70;;;2.67;;
6955;SDS011;50345;51.136;16.886;2023-08-08T04:43:41;3.17;;;1.73;;
6955;SDS011;50345;51.136;16.886;2023-08-08T04:46:07;5.47;;;2.13;;
6955;SDS011;50345;51.136;16.886;2023-08-08T04:48:33;2.97;;;1.90;;
6955;SDS011;50345;51.136;16.886;2023-08-08T04:50:59;5.63;;;2.63;;
6955;SDS011;50345;51.136;16.886;2023-08-08T04:53:25;8.93;;;3.27;;
6955;SDS011;50345;51.136;16.886;2023-08-08T04:55:51;4.80;;;2.33;;
6955;SDS011;50345;51.136;16.886;2023-08-08T04:58:18;4.50;;;2.50;;
6955;SDS011;50345;51.136;16.886;2023-08-08T05:00:44;4.73;;;2.40;;
6955;SDS011;50345;51.136;16.886;2023-08-08T05:03:11;6.70;;;2.35;;
6955;SDS011;50345;51.136;16.886;2023-08-08T05:05:37;3.97;;;2.05;;
6955;SDS011;50345;51.136;16.886;2023-08-08T05:08:03;5.70;;;1.92;;
6955;SDS011;50345;51.136;16.886;2023-08-08T05:10:29;4.90;;;2.15;;
6955;SDS011;50345;51.136;16.886;2023-08-08T05:12:56;3.70;;;2.70;;
6955;SDS011;50345;51.136;16.886;2023-08-08T05:15:22;4.45;;;2.80;;
6955;SDS011;50345;51.136;16.886;2023-08-08T05:17:48;5.00;;;2.90;;
6955;SDS011;50345;51.136;16.886;2023-08-08T05:20:14;6.28;;;2.55;;
6955;SDS011;50345;51.136;16.886;2023-08-08T05:22:41;3.42;;;2.50;;
6955;SDS011;50345;51.136;16.886;2023-08-08T05:25:07;3.50;;;2.45;;
6955;SDS011;50345;51.136;16.886;2023-08-08T05:27:33;5.35;;;2.10;;
6955;SDS011;50345;51.136;16.886;2023-08-08T05:29:59;2.33;;;2.10;;
6955;SDS011;50345;51.136;16.886;2023-08-08T05:32:25;3.00;;;1.95;;
6955;SDS011;50345;51.136;16.886;2023-08-08T05:34:51;3.83;;;2.20;;
6955;SDS011;50345;51.136;16.886;2023-08-08T05:37:17;3.58;;;1.95;;
6955;SDS011;50345;51.136;16.886;2023-08-08T05:39:44;5.72;;;1.98;;
6955;SDS011;50345;51.136;16.886;2023-08-08T05:42:10;3.45;;;2.13;;
6955;SDS011;50345;51.136;16.886;2023-08-08T05:44:36;3.72;;;2.00;;
6955;SDS011;50345;51.136;16.886;2023-08-08T05:47:02;2.40;;;2.00;;
6955;SDS011;50345;51.136;16.886;2023-08-08T05:49:28;6.63;;;2.15;;
6955;SDS011;50345;51.136;16.886;2023-08-08T05:51:54;4.53;;;1.45;;
6955;SDS011;50345;51.136;16.886;2023-08-08T05:54:20;5.53;;;2.43;;
6955;SDS011;50345;51.136;16.886;2023-08-08T05:56:46;3.83;;;2.85;;
6955;SDS011;50345;51.136;16.886;2023-08-08T05:59:12;3.00;;;1.80;;
6955;SDS011;50345;51.136;16.886;2023-08-08T06:01:38;3.37;;;1.90;;
6955;SDS011;50345;51.136;16.886;2023-08-08T06:04:04;2.58;;;1.75;;
6955;SDS011;50345;51.136;16.886;2023-08-08T06:06:30;2.87;;;1.70;;
6955;SDS011;50345;51.136;16.886;2023-08-08T06:08:56;2.10;;;1.50;;
6955;SDS011;50345;51.136;16.886;2023-08-08T06:11:22;1.90;;;1.60;;
6955;SDS011;50345;51.136;16.886;2023-08-08T06:13:48;3.60;;;1.67;;
6955;SDS011;50345;51.136;16.886;2023-08-08T06:16:14;2.53;;;2.28;;
6955;SDS011;50345;51.136;16.886;2023-08-08T06:18:40;2.53;;;2.30;;
6955;SDS011;50345;51.136;16.886;2023-08-08T06:21:07;2.72;;;2.40;;
6955;SDS011;50345;51.136;16.886;2023-08-08T06:23:33;4.80;;;2.55;;
6955;SDS011;50345;51.136;16.886;2023-08-08T06:25:59;5.85;;;2.17;;
6955;SDS011;50345;51.136;16.886;2023-08-08T06:28:25;5.05;;;2.78;;
6955;SDS011;50345;51.136;16.886;2023-08-08T06:30:51;5.53;;;1.75;;
6955;SDS011;50345;51.136;16.886;2023-08-08T06:33:17;5.72;;;2.10;;
6955;SDS011;50345;51.136;16.886;2023-08-08T06:35:44;4.40;;;1.80;;
6955;SDS011;50345;51.136;16.886;2023-08-08T06:38:10;10.98;;;2.33;;
6955;SDS011;50345;51.136;16.886;2023-08-08T06:40:36;4.63;;;1.92;;
6955;SDS011;50345;51.136;16.886;2023-08-08T06:43:02;4.80;;;1.65;;
6955;SDS011;50345;51.136;16.886;2023-08-08T06:45:28;7.57;;;2.55;;
6955;SDS011;50345;51.136;16.886;2023-08-08T06:47:54;2.50;;;1.50;;
6955;SDS011;50345;51.136;16.886;2023-08-08T06:50:21;2.97;;;2.35;;
6955;SDS011;50345;51.136;16.886;2023-08-08T06:52:49;3.72;;;2.08;;
6955;SDS011;50345;51.136;16.886;2023-08-08T06:55:15;3.33;;;1.90;;
6955;SDS011;50345;51.136;16.886;2023-08-08T06:57:41;5.10;;;1.90;;
6955;SDS011;50345;51.136;16.886;2023-08-08T07:00:08;4.90;;;2.17;;
6955;SDS011;50345;51.136;16.886;2023-08-08T07:02:34;3.88;;;1.73;;
6955;SDS011;50345;51.136;16.886;2023-08-08T07:05:00;3.75;;;1.60;;
6955;SDS011;50345;51.136;16.886;2023-08-08T07:07:28;4.30;;;1.30;;
6955;SDS011;50345;51.136;16.886;2023-08-08T07:09:55;3.03;;;1.50;;
6955;SDS011;50345;51.136;16.886;2023-08-08T07:12:21;3.10;;;1.80;;
6955;SDS011;50345;51.136;16.886;2023-08-08T07:14:47;2.30;;;1.40;;
6955;SDS011;50345;51.136;16.886;2023-08-08T07:17:13;4.07;;;1.70;;
6955;SDS011;50345;51.136;16.886;2023-08-08T07:19:39;3.73;;;1.53;;
6955;SDS011;50345;51.136;16.886;2023-08-08T07:22:06;3.92;;;2.22;;
6955;SDS011;50345;51.136;16.886;2023-08-08T07:24:33;1.33;;;1.10;;
6955;SDS011;50345;51.136;16.886;2023-08-08T07:26:59;1.50;;;1.13;;
6955;SDS011;50345;51.136;16.886;2023-08-08T07:29:25;2.20;;;1.50;;
6955;SDS011;50345;51.136;16.886;2023-08-08T07:31:52;1.77;;;1.45;;
6955;SDS011;50345;51.136;16.886;2023-08-08T07:34:18;3.10;;;1.83;;
6955;SDS011;50345;51.136;16.886;2023-08-08T07:36:45;3.30;;;1.85;;
6955;SDS011;50345;51.136;16.886;2023-08-08T07:39:11;4.50;;;1.60;;
6955;SDS011;50345;51.136;16.886;2023-08-08T07:41:37;2.20;;;1.67;;
6955;SDS011;50345;51.136;16.886;2023-08-08T07:46:30;2.40;;;1.30;;
6955;SDS011;50345;51.136;16.886;2023-08-08T07:48:56;3.70;;;1.70;;
6955;SDS011;50345;51.136;16.886;2023-08-08T07:51:24;2.65;;;1.30;;
6955;SDS011;50345;51.136;16.886;2023-08-08T07:53:50;1.27;;;1.10;;
6955;SDS011;50345;51.136;16.886;2023-08-08T07:56:16;1.13;;;0.90;;
6955;SDS011;50345;51.136;16.886;2023-08-08T07:58:42;3.93;;;1.07;;
6955;SDS011;50345;51.136;16.886;2023-08-08T08:01:09;1.97;;;1.30;;
6955;SDS011;50345;51.136;16.886;2023-08-08T08:03:36;1.67;;;1.23;;
6955;SDS011;50345;51.136;16.886;2023-08-08T08:06:02;3.63;;;1.63;;
6955;SDS011;50345;51.136;16.886;2023-08-08T08:08:28;2.50;;;1.23;;
6955;SDS011;50345;51.136;16.886;2023-08-08T08:10:54;2.10;;;1.20;;
6955;SDS011;50345;51.136;16.886;2023-08-08T08:13:20;2.57;;;1.47;;
6955;SDS011;50345;51.136;16.886;2023-08-08T08:15:46;2.57;;;1.00;;
6955;SDS011;50345;51.136;16.886;2023-08-08T08:18:12;1.87;;;1.60;;
6955;SDS011;50345;51.136;16.886;2023-08-08T08:20:41;2.63;;;1.50;;
6955;SDS011;50345;51.136;16.886;2023-08-08T08:23:07;2.03;;;1.43;;
6955;SDS011;50345;51.136;16.886;2023-08-08T08:25:33;2.40;;;1.40;;
6955;SDS011;50345;51.136;16.886;2023-08-08T08:28:00;2.40;;;1.50;;
6955;SDS011;50345;51.136;16.886;2023-08-08T08:30:26;1.13;;;0.97;;
6955;SDS011;50345;51.136;16.886;2023-08-08T08:32:52;1.20;;;1.10;;
6955;SDS011;50345;51.136;16.886;2023-08-08T08:35:18;1.00;;;0.83;;
6955;SDS011;50345;51.136;16.886;2023-08-08T08:37:45;5.53;;;1.50;;
6955;SDS011;50345;51.136;16.886;2023-08-08T08:40:11;1.47;;;1.30;;
6955;SDS011;50345;51.136;16.886;2023-08-08T08:42:38;2.70;;;1.10;;
6955;SDS011;50345;51.136;16.886;2023-08-08T08:45:05;1.97;;;1.30;;
6955;SDS011;50345;51.136;16.886;2023-08-08T08:47:32;1.20;;;0.87;;
6955;SDS011;50345;51.136;16.886;2023-08-08T08:49:59;2.10;;;1.23;;
6955;SDS011;50345;51.136;16.886;2023-08-08T08:52:27;2.33;;;1.63;;
6955;SDS011;50345;51.136;16.886;2023-08-08T08:54:53;1.60;;;1.50;;
6955;SDS011;50345;51.136;16.886;2023-08-08T08:57:23;3.60;;;1.53;;
6955;SDS011;50345;51.136;16.886;2023-08-08T08:59:49;2.97;;;1.30;;
6955;SDS011;50345;51.136;16.886;2023-08-08T09:02:15;3.13;;;1.10;;
6955;SDS011;50345;51.136;16.886;2023-08-08T09:04:42;1.70;;;1.27;;
6955;SDS011;50345;51.136;16.886;2023-08-08T09:07:08;1.10;;;1.00;;
6955;SDS011;50345;51.136;16.886;2023-08-08T09:09:35;2.77;;;1.53;;
6955;SDS011;50345;51.136;16.886;2023-08-08T09:12:03;1.70;;;1.40;;
6955;SDS011;50345;51.136;16.886;2023-08-08T09:14:30;3.97;;;2.20;;
6955;SDS011;50345;51.136;16.886;2023-08-08T09:16:56;3.20;;;1.33;;
6955;SDS011;50345;51.136;16.886;2023-08-08T09:19:22;1.20;;;1.03;;
6955;SDS011;50345;51.136;16.886;2023-08-08T09:21:49;1.70;;;1.10;;
6955;SDS011;50345;51.136;16.886;2023-08-08T09:24:15;1.20;;;1.03;;
6955;SDS011;50345;51.136;16.886;2023-08-08T09:26:42;1.77;;;1.67;;
6955;SDS011;50345;51.136;16.886;2023-08-08T09:29:08;2.73;;;1.73;;
6955;SDS011;50345;51.136;16.886;2023-08-08T09:31:35;1.50;;;1.20;;
6955;SDS011;50345;51.136;16.886;2023-08-08T09:34:02;2.20;;;1.40;;
6955;SDS011;50345;51.136;16.886;2023-08-08T09:36:29;2.60;;;1.30;;
6955;SDS011;50345;51.136;16.886;2023-08-08T09:38:55;2.30;;;1.40;;
6955;SDS011;50345;51.136;16.886;2023-08-08T09:41:24;1.67;;;1.10;;
6955;SDS011;50345;51.136;16.886;2023-08-08T09:43:51;2.50;;;1.43;;
6955;SDS011;50345;51.136;16.886;2023-08-08T09:46:21;2.50;;;1.20;;
6955;SDS011;50345;51.136;16.886;2023-08-08T09:48:48;1.67;;;1.10;;
6955;SDS011;50345;51.136;16.886;2023-08-08T09:51:14;2.90;;;1.97;;
6955;SDS011;50345;51.136;16.886;2023-08-08T09:53:40;2.43;;;1.20;;
6955;SDS011;50345;51.136;16.886;2023-08-08T09:56:07;1.30;;;1.20;;
6955;SDS011;50345;51.136;16.886;2023-08-08T09:58:33;1.23;;;1.00;;
6955;SDS011;50345;51.136;16.886;2023-08-08T10:01:00;3.03;;;1.50;;
6955;SDS011;50345;51.136;16.886;2023-08-08T10:03:28;1.57;;;1.47;;
6955;SDS011;50345;51.136;16.886;2023-08-08T10:05:54;2.50;;;1.30;;
6955;SDS011;50345;51.136;16.886;2023-08-08T10:08:20;1.90;;;1.63;;
6955;SDS011;50345;51.136;16.886;2023-08-08T10:10:47;1.73;;;1.20;;
6955;SDS011;50345;51.136;16.886;2023-08-08T10:13:21;2.20;;;1.13;;
6955;SDS011;50345;51.136;16.886;2023-08-08T10:15:47;1.50;;;1.40;;
6955;SDS011;50345;51.136;16.886;2023-08-08T10:18:13;1.43;;;1.10;;
6955;SDS011;50345;51.136;16.886;2023-08-08T10:20:42;2.80;;;1.30;;
6955;SDS011;50345;51.136;16.886;2023-08-08T10:23:08;2.00;;;1.30;;
6955;SDS011;50345;51.136;16.886;2023-08-08T10:25:34;1.90;;;1.20;;
6955;SDS011;50345;51.136;16.886;2023-08-08T10:28:08;1.60;;;1.30;;
6955;SDS011;50345;51.136;16.886;2023-08-08T10:30:58;1.40;;;1.23;;
6955;SDS011;50345;51.136;16.886;2023-08-08T10:33:25;1.40;;;1.10;;
6955;SDS011;50345;51.136;16.886;2023-08-08T10:35:59;1.67;;;1.10;;
6955;SDS011;50345;51.136;16.886;2023-08-08T10:38:25;1.63;;;1.20;;
6955;SDS011;50345;51.136;16.886;2023-08-08T10:40:55;2.73;;;1.37;;
6955;SDS011;50345;51.136;16.886;2023-08-08T10:43:25;1.17;;;1.07;;
6955;SDS011;50345;51.136;16.886;2023-08-08T10:45:51;1.30;;;1.20;;
6955;SDS011;50345;51.136;16.886;2023-08-08T10:48:17;1.87;;;1.40;;
6955;SDS011;50345;51.136;16.886;2023-08-08T10:50:45;1.93;;;1.63;;
6955;SDS011;50345;51.136;16.886;2023-08-08T10:53:12;3.03;;;1.60;;
6955;SDS011;50345;51.136;16.886;2023-08-08T10:55:38;2.33;;;1.77;;
6955;SDS011;50345;51.136;16.886;2023-08-08T11:00:31;2.80;;;1.77;;
6955;SDS011;50345;51.136;16.886;2023-08-08T11:02:57;1.60;;;1.50;;
6955;SDS011;50345;51.136;16.886;2023-08-08T11:05:24;2.60;;;1.60;;
6955;SDS011;50345;51.136;16.886;2023-08-08T11:07:51;1.53;;;1.43;;
6955;SDS011;50345;51.136;16.886;2023-08-08T11:10:17;1.87;;;1.50;;
6955;SDS011;50345;51.136;16.886;2023-08-08T11:12:53;2.73;;;1.57;;
6955;SDS011;50345;51.136;16.886;2023-08-08T11:15:19;2.80;;;1.20;;
6955;SDS011;50345;51.136;16.886;2023-08-08T11:17:45;2.47;;;1.40;;
6955;SDS011;50345;51.136;16.886;2023-08-08T11:20:11;1.83;;;1.60;;
6955;SDS011;50345;51.136;16.886;2023-08-08T11:22:37;2.13;;;1.93;;
6955;SDS011;50345;51.136;16.886;2023-08-08T11:25:03;1.40;;;1.07;;
6955;SDS011;50345;51.136;16.886;2023-08-08T11:27:31;4.17;;;1.70;;
6955;SDS011;50345;51.136;16.886;2023-08-08T11:29:57;2.20;;;1.43;;
6955;SDS011;50345;51.136;16.886;2023-08-08T11:32:23;1.90;;;1.70;;
6955;SDS011;50345;51.136;16.886;2023-08-08T11:34:49;1.50;;;1.40;;
6955;SDS011;50345;51.136;16.886;2023-08-08T11:37:16;2.73;;;1.60;;
6955;SDS011;50345;51.136;16.886;2023-08-08T11:39:42;1.83;;;1.60;;
6955;SDS011;50345;51.136;16.886;2023-08-08T11:42:08;3.50;;;1.40;;
6955;SDS011;50345;51.136;16.886;2023-08-08T11:44:35;1.70;;;1.50;;
6955;SDS011;50345;51.136;16.886;2023-08-08T11:47:01;2.13;;;1.97;;
6955;SDS011;50345;51.136;16.886;2023-08-08T11:49:27;2.40;;;1.60;;
6955;SDS011;50345;51.136;16.886;2023-08-08T11:51:54;5.67;;;2.20;;
6955;SDS011;50345;51.136;16.886;2023-08-08T11:54:26;2.63;;;1.60;;
6955;SDS011;50345;51.136;16.886;2023-08-08T11:56:55;2.10;;;2.00;;
6955;SDS011;50345;51.136;16.886;2023-08-08T11:59:21;2.10;;;1.70;;
6955;SDS011;50345;51.136;16.886;2023-08-08T12:01:48;1.60;;;1.30;;
6955;SDS011;50345;51.136;16.886;2023-08-08T12:04:15;1.67;;;1.57;;
6955;SDS011;50345;51.136;16.886;2023-08-08T12:06:41;1.67;;;1.57;;
6955;SDS011;50345;51.136;16.886;2023-08-08T12:09:11;2.00;;;1.80;;
6955;SDS011;50345;51.136;16.886;2023-08-08T12:11:38;1.57;;;1.37;;
6955;SDS011;50345;51.136;16.886;2023-08-08T12:14:09;5.97;;;2.23;;
6955;SDS011;50345;51.136;16.886;2023-08-08T12:16:37;2.93;;;1.63;;
6955;SDS011;50345;51.136;16.886;2023-08-08T12:19:08;1.87;;;1.47;;
6955;SDS011;50345;51.136;16.886;2023-08-08T12:21:36;2.53;;;1.83;;
6955;SDS011;50345;51.136;16.886;2023-08-08T12:24:02;1.67;;;1.53;;
6955;SDS011;50345;51.136;16.886;2023-08-08T12:26:28;1.87;;;1.70;;
6955;SDS011;50345;51.136;16.886;2023-08-08T12:28:54;3.77;;;1.70;;
6955;SDS011;50345;51.136;16.886;2023-08-08T12:31:20;1.60;;;1.50;;
6955;SDS011;50345;51.136;16.886;2023-08-08T12:33:46;2.60;;;1.53;;
6955;SDS011;50345;51.136;16.886;2023-08-08T12:36:13;1.60;;;1.30;;
6955;SDS011;50345;51.136;16.886;2023-08-08T12:38:39;2.40;;;1.77;;
6955;SDS011;50345;51.136;16.886;2023-08-08T12:41:05;1.60;;;1.50;;
6955;SDS011;50345;51.136;16.886;2023-08-08T12:43:31;4.40;;;1.80;;
6955;SDS011;50345;51.136;16.886;2023-08-08T12:45:59;3.60;;;1.77;;
6955;SDS011;50345;51.136;16.886;2023-08-08T12:48:25;1.93;;;1.30;;
6955;SDS011;50345;51.136;16.886;2023-08-08T12:50:51;1.80;;;1.33;;
6955;SDS011;50345;51.136;16.886;2023-08-08T12:53:17;1.33;;;1.23;;
6955;SDS011;50345;51.136;16.886;2023-08-08T12:55:43;4.40;;;1.43;;
6955;SDS011;50345;51.136;16.886;2023-08-08T12:58:09;1.73;;;1.60;;
6955;SDS011;50345;51.136;16.886;2023-08-08T13:00:35;1.10;;;1.00;;
6955;SDS011;50345;51.136;16.886;2023-08-08T13:03:02;9.03;;;2.07;;
6955;SDS011;50345;51.136;16.886;2023-08-08T13:05:28;2.87;;;1.47;;
6955;SDS011;50345;51.136;16.886;2023-08-08T13:07:54;2.30;;;1.60;;
6955;SDS011;50345;51.136;16.886;2023-08-08T13:10:20;2.30;;;1.40;;
6955;SDS011;50345;51.136;16.886;2023-08-08T13:12:47;2.67;;;1.50;;
6955;SDS011;50345;51.136;16.886;2023-08-08T13:15:13;1.77;;;1.67;;
6955;SDS011;50345;51.136;16.886;2023-08-08T13:17:39;1.47;;;1.37;;
6955;SDS011;50345;51.136;16.886;2023-08-08T13:20:05;1.47;;;1.37;;
6955;SDS011;50345;51.136;16.886;2023-08-08T13:22:32;1.83;;;1.50;;
6955;SDS011;50345;51.136;16.886;2023-08-08T13:24:58;2.17;;;1.57;;
6955;SDS011;50345;51.136;16.886;2023-08-08T13:27:24;4.07;;;1.77;;
6955;SDS011;50345;51.136;16.886;2023-08-08T13:29:50;1.90;;;1.30;;
6955;SDS011;50345;51.136;16.886;2023-08-08T13:32:16;4.40;;;1.50;;
6955;SDS011;50345;51.136;16.886;2023-08-08T13:34:43;1.97;;;1.83;;
6955;SDS011;50345;51.136;16.886;2023-08-08T13:37:09;1.50;;;1.40;;
6955;SDS011;50345;51.136;16.886;2023-08-08T13:39:35;1.50;;;1.40;;
6955;SDS011;50345;51.136;16.886;2023-08-08T13:42:01;3.43;;;1.63;;
6955;SDS011;50345;51.136;16.886;2023-08-08T13:44:27;2.30;;;1.30;;
6955;SDS011;50345;51.136;16.886;2023-08-08T13:46:53;2.70;;;2.20;;
6955;SDS011;50345;51.136;16.886;2023-08-08T13:49:20;1.73;;;1.63;;
6955;SDS011;50345;51.136;16.886;2023-08-08T13:51:51;1.50;;;1.40;;
6955;SDS011;50345;51.136;16.886;2023-08-08T13:54:17;2.60;;;1.50;;
6955;SDS011;50345;51.136;16.886;2023-08-08T13:56:43;1.53;;;1.30;;
6955;SDS011;50345;51.136;16.886;2023-08-08T13:59:09;1.70;;;1.60;;
6955;SDS011;50345;51.136;16.886;2023-08-08T14:01:35;2.90;;;1.90;;
6955;SDS011;50345;51.136;16.886;2023-08-08T14:04:01;1.90;;;1.70;;
6955;SDS011;50345;51.136;16.886;2023-08-08T14:06:27;3.17;;;1.60;;
6955;SDS011;50345;51.136;16.886;2023-08-08T14:08:53;3.93;;;1.83;;
6955;SDS011;50345;51.136;16.886;2023-08-08T14:11:19;2.70;;;2.00;;
6955;SDS011;50345;51.136;16.886;2023-08-08T14:13:46;2.80;;;1.80;;
6955;SDS011;50345;51.136;16.886;2023-08-08T14:16:12;1.93;;;1.30;;
6955;SDS011;50345;51.136;16.886;2023-08-08T14:18:38;1.67;;;1.40;;
6955;SDS011;50345;51.136;16.886;2023-08-08T14:21:04;3.63;;;1.63;;
6955;SDS011;50345;51.136;16.886;2023-08-08T14:23:30;4.37;;;1.90;;
6955;SDS011;50345;51.136;16.886;2023-08-08T14:25:56;2.67;;;2.00;;
6955;SDS011;50345;51.136;16.886;2023-08-08T14:28:22;1.63;;;1.53;;
6955;SDS011;50345;51.136;16.886;2023-08-08T14:30:48;2.47;;;1.60;;
6955;SDS011;50345;51.136;16.886;2023-08-08T14:33:14;2.50;;;1.60;;
6955;SDS011;50345;51.136;16.886;2023-08-08T14:35:41;3.10;;;1.70;;
6955;SDS011;50345;51.136;16.886;2023-08-08T14:38:07;2.40;;;1.47;;
6955;SDS011;50345;51.136;16.886;2023-08-08T14:40:33;2.43;;;1.60;;
6955;SDS011;50345;51.136;16.886;2023-08-08T14:43:02;2.20;;;1.60;;
6955;SDS011;50345;51.136;16.886;2023-08-08T14:45:34;2.33;;;1.47;;
6955;SDS011;50345;51.136;16.886;2023-08-08T14:48:02;2.80;;;1.43;;